createdAt,value
2022-12-05T00:02:58.303Z,3.96
2022-12-05T00:07:00.517Z,3.89
2022-12-05T00:11:02.720Z,3.84
2022-12-05T00:15:05.491Z,3.81
2022-12-05T00:19:11.819Z,3.84
2022-12-05T00:23:14.473Z,3.90
2022-12-05T00:27:16.527Z,3.95
2022-12-05T00:31:21.699Z,3.82
2022-12-05T00:35:24.423Z,3.77
2022-12-05T00:39:26.456Z,3.70
2022-12-05T00:43:28.473Z,3.74
2022-12-05T00:47:30.495Z,3.77
2022-12-05T00:51:37.310Z,3.82
2022-12-05T00:55:39.348Z,3.91
2022-12-05T00:59:41.351Z,3.87
2022-12-05T01:03:45.020Z,3.87
2022-12-05T01:07:47.275Z,3.82
2022-12-05T01:11:49.917Z,3.85
2022-12-05T01:15:52.247Z,3.84
2022-12-05T01:19:54.308Z,3.74
2022-12-05T01:23:56.830Z,3.59
2022-12-05T01:27:58.930Z,3.55
2022-12-05T01:32:01.177Z,3.55
2022-12-05T01:36:04.260Z,3.58
2022-12-05T01:40:07.044Z,3.66
2022-12-05T01:44:12.447Z,3.65
2022-12-05T01:48:25.766Z,3.74
2022-12-05T01:52:30.997Z,3.85
2022-12-05T01:56:35.533Z,3.82
2022-12-05T02:00:39.231Z,3.71
2022-12-05T02:04:53.096Z,3.64
2022-12-05T02:08:55.555Z,3.61
2022-12-05T02:13:05.937Z,3.57
2022-12-05T02:17:17.030Z,3.53
2022-12-05T02:21:56.758Z,3.49
2022-12-05T02:26:04.846Z,3.43
2022-12-05T02:30:14.817Z,3.48
2022-12-05T02:34:22.381Z,3.45
2022-12-05T02:38:34.929Z,3.48
2022-12-05T02:42:51.230Z,3.67
2022-12-05T02:46:54.130Z,3.79
2022-12-05T02:51:00.290Z,3.82
2022-12-05T02:55:03.692Z,3.84
2022-12-05T02:59:05.863Z,3.92
2022-12-05T03:03:15.415Z,3.89
2022-12-05T03:07:19.588Z,3.85
2022-12-05T03:11:22.372Z,3.78
2022-12-05T03:15:37.590Z,3.80
2022-12-05T03:19:50.207Z,3.72
2022-12-05T03:23:58.164Z,3.59
2022-12-05T03:28:20.601Z,3.50
2022-12-05T03:32:36.692Z,3.56
2022-12-05T03:36:45.270Z,3.69
2022-12-05T03:40:56.951Z,3.82
2022-12-05T03:45:17.697Z,3.93
2022-12-05T03:49:34.549Z,3.95
2022-12-05T03:53:48.331Z,3.99
2022-12-05T03:57:56.902Z,3.97
2022-12-05T04:02:04.264Z,3.92
2022-12-05T04:06:14.638Z,3.88
2022-12-05T04:10:22.520Z,3.87
2022-12-05T04:14:39.018Z,3.89
2022-12-05T04:18:47.719Z,3.98
2022-12-05T04:22:50.729Z,3.91
2022-12-05T04:27:08.411Z,3.89
2022-12-05T04:31:23.320Z,3.90
2022-12-05T04:35:51.244Z,3.90
2022-12-05T04:39:55.751Z,3.91
2022-12-05T04:44:01.684Z,3.89
2022-12-05T04:48:11.630Z,3.88
2022-12-05T04:52:14.736Z,3.88
2022-12-05T04:56:19.460Z,3.97
2022-12-05T05:00:21.738Z,3.95
2022-12-05T05:04:45.437Z,3.74
2022-12-05T05:08:53.488Z,3.71
2022-12-05T05:12:56.198Z,3.70
2022-12-05T05:16:58.494Z,3.78
2022-12-05T05:21:00.549Z,3.79
2022-12-05T05:25:02.529Z,3.79
2022-12-05T05:29:05.301Z,3.79
2022-12-05T05:33:07.416Z,3.84
2022-12-05T05:37:09.447Z,3.89
2022-12-05T05:41:27.900Z,3.89
2022-12-05T05:45:29.956Z,3.94
2022-12-05T05:49:31.999Z,3.95
2022-12-05T05:53:34.665Z,3.97
2022-12-05T05:57:37.134Z,3.99
2022-12-05T06:01:39.231Z,3.98
2022-12-05T06:05:41.322Z,3.96
2022-12-05T06:09:43.384Z,3.97
2022-12-05T06:13:45.576Z,3.94
2022-12-05T06:17:47.603Z,3.92
2022-12-05T06:21:50.680Z,3.95
2022-12-05T06:25:55.329Z,3.93
2022-12-05T06:29:57.592Z,3.92
2022-12-05T06:34:03.819Z,3.93
2022-12-05T06:38:07.151Z,3.85
2022-12-05T06:42:09.195Z,3.88
2022-12-05T06:46:13.097Z,3.92
2022-12-05T06:50:15.328Z,3.90
2022-12-05T06:54:17.319Z,3.75
2022-12-05T06:58:19.394Z,3.72
2022-12-05T07:02:21.428Z,3.71
2022-12-05T07:06:23.534Z,3.81
2022-12-05T07:10:25.508Z,3.84
2022-12-05T07:18:50.288Z,3.55
2022-12-05T07:22:52.316Z,3.71
2022-12-05T07:26:54.365Z,3.76
2022-12-05T07:31:01.077Z,3.77
2022-12-05T07:35:03.231Z,3.69
2022-12-05T07:39:05.295Z,3.67
2022-12-05T07:43:07.281Z,3.73
2022-12-05T07:47:09.277Z,3.77
2022-12-05T07:51:11.761Z,3.82
2022-12-05T07:55:13.761Z,3.92
2022-12-05T07:59:15.796Z,3.99
2022-12-05T08:03:17.808Z,3.96
2022-12-05T08:07:19.828Z,4.07
2022-12-05T08:11:25.115Z,4.13
2022-12-05T08:15:27.147Z,4.15
2022-12-05T08:19:29.206Z,4.28
2022-12-05T08:23:32.467Z,4.32
2022-12-05T08:27:34.581Z,4.36
2022-12-05T08:31:41.607Z,4.40
2022-12-05T08:35:43.615Z,4.48
2022-12-05T08:39:45.631Z,4.55
2022-12-05T08:43:47.663Z,4.61
2022-12-05T08:47:49.717Z,4.65
2022-12-05T08:51:51.787Z,4.65
2022-12-05T08:55:53.777Z,4.66
2022-12-05T08:59:55.879Z,4.71
2022-12-05T09:04:02.360Z,4.75
2022-12-05T09:08:04.966Z,4.84
2022-12-05T09:12:07.072Z,4.94
2022-12-05T09:16:15.394Z,5.00
2022-12-05T09:20:18.303Z,5.14
2022-12-05T09:24:20.396Z,5.09
2022-12-05T09:28:22.424Z,4.98
2022-12-05T09:32:24.494Z,4.90
2022-12-05T09:36:29.520Z,4.93
2022-12-05T09:40:31.623Z,4.98
2022-12-05T09:44:44.276Z,5.04
2022-12-05T09:48:47.287Z,5.14
2022-12-05T09:52:55.443Z,5.26
2022-12-05T09:56:58.889Z,5.28
2022-12-05T10:01:22.765Z,5.29
2022-12-05T10:05:36.232Z,5.37
2022-12-05T10:09:40.953Z,5.43
2022-12-05T10:14:04.344Z,5.49
2022-12-05T10:18:09.376Z,5.58
2022-12-05T10:22:20.724Z,5.65
2022-12-05T10:26:28.133Z,5.69
2022-12-05T10:30:32.705Z,5.74
2022-12-05T10:34:39.679Z,5.69
2022-12-05T10:38:44.461Z,5.76
2022-12-05T10:42:48.574Z,5.91
2022-12-05T10:46:50.862Z,6.03
2022-12-05T10:50:55.590Z,6.05
2022-12-05T10:55:02.936Z,6.11
2022-12-05T10:59:06.389Z,6.14
2022-12-05T11:03:24.015Z,6.20
2022-12-05T11:07:53.922Z,6.23
2022-12-05T11:12:42.958Z,6.37
2022-12-05T11:16:53.343Z,6.44
2022-12-05T11:20:55.658Z,6.42
2022-12-05T11:24:57.931Z,6.47
2022-12-05T11:29:00.372Z,6.43
2022-12-05T11:33:23.287Z,6.33
2022-12-05T11:37:30.781Z,6.33
2022-12-05T11:41:43.584Z,6.33
2022-12-05T11:46:04.438Z,6.40
2022-12-05T11:50:41.933Z,6.54
2022-12-05T11:55:05.447Z,6.56
2022-12-05T11:59:21.455Z,6.47
2022-12-05T12:03:34.093Z,6.38
2022-12-05T12:08:00.255Z,6.37
2022-12-05T12:12:05.695Z,6.44
2022-12-05T12:16:20.219Z,6.53
2022-12-05T12:20:35.095Z,6.62
2022-12-05T12:25:01.472Z,6.62
2022-12-05T12:29:25.785Z,6.50
2022-12-05T12:33:49.866Z,6.38
2022-12-05T12:38:05.000Z,6.25
2022-12-05T12:42:21.941Z,6.11
2022-12-05T12:46:30.516Z,6.13
2022-12-05T12:50:40.307Z,6.24
2022-12-05T12:55:05.365Z,6.29
2022-12-05T12:59:33.494Z,6.25
2022-12-05T13:03:51.425Z,6.36
2022-12-05T13:08:16.924Z,6.33
2022-12-05T13:12:26.258Z,6.29
2022-12-05T13:16:42.548Z,6.29
2022-12-05T13:20:50.663Z,6.25
2022-12-05T13:24:54.245Z,6.29
2022-12-05T13:29:02.237Z,6.30
2022-12-05T13:33:10.284Z,6.27
2022-12-05T13:37:39.260Z,6.21
2022-12-05T13:42:02.636Z,6.10
2022-12-05T13:46:08.925Z,6.06
2022-12-05T13:50:27.267Z,6.03
2022-12-05T13:54:30.953Z,5.90
2022-12-05T13:58:32.938Z,5.85
2022-12-05T14:02:45.218Z,5.83
2022-12-05T14:06:47.237Z,5.88
2022-12-05T14:11:09.452Z,6.00
2022-12-05T14:15:32.823Z,5.99
2022-12-05T14:19:52.082Z,5.95
2022-12-05T14:24:19.690Z,5.95
2022-12-05T14:28:34.411Z,5.91
2022-12-05T14:32:42.545Z,5.85
2022-12-05T14:36:58.927Z,5.86
2022-12-05T14:41:15.802Z,5.92
2022-12-05T14:45:30.066Z,5.91
2022-12-05T14:49:52.162Z,5.91
2022-12-05T14:53:54.899Z,5.94
2022-12-05T14:57:57.116Z,5.95
2022-12-05T15:02:03.797Z,5.84
2022-12-05T15:06:15.915Z,5.83
2022-12-05T15:10:29.685Z,5.74
2022-12-05T15:14:39.742Z,5.67
2022-12-05T15:18:49.517Z,5.68
2022-12-05T15:22:51.698Z,5.68
2022-12-05T15:26:58.695Z,5.47
2022-12-05T15:31:00.778Z,5.43
2022-12-05T15:35:06.935Z,5.49
2022-12-05T15:39:23.965Z,5.56
2022-12-05T15:43:29.582Z,5.53
2022-12-05T15:47:32.119Z,5.61
2022-12-05T15:51:37.859Z,5.69
2022-12-05T15:55:47.342Z,5.66
2022-12-05T15:59:55.707Z,5.66
2022-12-05T16:04:12.461Z,5.64
2022-12-05T16:08:15.148Z,5.57
2022-12-05T16:12:23.873Z,5.57
2022-12-05T16:16:29.916Z,5.64
2022-12-05T16:20:36.871Z,5.61
2022-12-05T16:24:50.249Z,5.75
2022-12-05T16:29:01.229Z,5.66
2022-12-05T16:33:16.296Z,5.64
2022-12-05T16:37:26.223Z,5.53
2022-12-05T16:41:36.223Z,5.58
2022-12-05T16:45:44.498Z,5.30
2022-12-05T16:49:46.627Z,5.19
2022-12-05T16:53:52.722Z,5.24
2022-12-05T16:57:55.149Z,5.36
2022-12-05T17:01:57.227Z,5.42
2022-12-05T17:06:00.315Z,5.44
2022-12-05T17:10:02.403Z,5.46
2022-12-05T17:14:04.454Z,5.49
2022-12-05T17:18:16.132Z,5.45
2022-12-05T17:22:18.152Z,5.40
2022-12-05T17:26:22.436Z,5.41
2022-12-05T17:30:25.516Z,5.41
2022-12-05T17:34:28.711Z,5.43
2022-12-05T17:38:31.040Z,5.45
2022-12-05T17:42:33.017Z,5.48
2022-12-05T17:46:35.190Z,5.38
2022-12-05T17:50:39.595Z,5.36
2022-12-05T17:54:42.019Z,5.38
2022-12-05T17:58:44.086Z,5.34
2022-12-05T18:02:46.852Z,5.31
2022-12-05T18:06:48.880Z,5.37
2022-12-05T18:10:51.011Z,5.37
2022-12-05T18:14:53.111Z,5.21
2022-12-05T18:18:55.218Z,5.11
2022-12-05T18:22:57.243Z,5.19
2022-12-05T18:26:59.304Z,5.25
2022-12-05T18:31:05.562Z,5.31
2022-12-05T18:35:12.951Z,5.33
2022-12-05T18:39:15.422Z,5.35
2022-12-05T18:43:17.437Z,5.34
2022-12-05T18:47:20.339Z,5.28
2022-12-05T18:51:23.570Z,5.21
2022-12-05T18:55:39.403Z,5.22
2022-12-05T18:59:51.885Z,5.33
2022-12-05T19:03:54.204Z,5.37
2022-12-05T19:07:56.328Z,5.34
2022-12-05T19:11:59.640Z,5.34
2022-12-05T19:16:06.803Z,5.38
2022-12-05T19:20:08.960Z,5.43
2022-12-05T19:24:13.039Z,5.47
2022-12-05T19:28:15.211Z,5.53
2022-12-05T19:32:17.295Z,5.62
2022-12-05T19:36:22.757Z,5.64
2022-12-05T19:40:24.811Z,5.67
2022-12-05T19:44:28.064Z,5.67
2022-12-05T19:48:30.104Z,5.67
2022-12-05T19:52:32.162Z,5.67
2022-12-05T19:56:35.710Z,5.68
2022-12-05T20:00:38.159Z,5.69
2022-12-05T20:04:43.186Z,5.72
2022-12-05T20:08:45.672Z,5.77
2022-12-05T20:12:47.705Z,5.74
2022-12-05T20:16:49.846Z,5.64
2022-12-05T20:20:59.629Z,5.59
2022-12-05T20:25:02.179Z,5.50
2022-12-05T20:29:05.650Z,5.37
2022-12-05T20:33:07.682Z,5.30
2022-12-05T20:37:11.077Z,5.27
2022-12-05T20:41:16.390Z,5.26
2022-12-05T20:45:18.402Z,5.23
2022-12-05T20:49:20.568Z,5.18
2022-12-05T20:53:22.706Z,5.17
2022-12-05T20:57:24.685Z,5.18
2022-12-05T21:01:28.783Z,5.20
2022-12-05T21:05:30.874Z,5.20
2022-12-05T21:09:34.795Z,5.25
2022-12-05T21:13:36.943Z,5.31
2022-12-05T21:17:38.970Z,5.41
2022-12-05T21:21:41.054Z,5.46
2022-12-05T21:25:43.051Z,5.46
2022-12-05T21:29:45.054Z,5.43
2022-12-05T21:33:50.456Z,5.42
2022-12-05T21:37:53.014Z,5.41
2022-12-05T21:41:55.177Z,5.35
2022-12-05T21:45:57.535Z,5.32
2022-12-05T21:49:59.850Z,5.34
2022-12-05T21:54:02.526Z,5.28
2022-12-05T21:58:04.663Z,5.22
2022-12-05T22:02:06.804Z,5.20
2022-12-05T22:06:11.055Z,5.18
2022-12-05T22:10:13.098Z,5.14
2022-12-05T22:14:21.476Z,5.04
2022-12-05T22:18:23.646Z,4.93
2022-12-05T22:22:25.659Z,4.83
2022-12-05T22:26:27.861Z,4.78
2022-12-05T22:30:30.254Z,4.70
2022-12-05T22:34:32.560Z,4.60
2022-12-05T22:38:36.941Z,4.57
2022-12-05T22:42:41.672Z,4.51
2022-12-05T22:46:43.954Z,4.46
2022-12-05T22:50:54.220Z,4.38
2022-12-05T22:55:02.052Z,4.33
2022-12-05T22:59:10.326Z,4.39
2022-12-05T23:03:17.215Z,4.46
2022-12-05T23:07:19.603Z,4.44
2022-12-05T23:11:22.788Z,4.45
2022-12-05T23:15:25.239Z,4.40
2022-12-05T23:19:28.928Z,4.46
2022-12-05T23:23:31.601Z,4.53
2022-12-05T23:27:41.223Z,4.56
2022-12-05T23:31:43.922Z,4.56
2022-12-05T23:35:46.243Z,4.46
2022-12-05T23:39:48.351Z,4.40
2022-12-05T23:43:51.679Z,4.32
2022-12-05T23:47:55.361Z,4.34
2022-12-05T23:51:58.018Z,4.34
2022-12-05T23:56:22.589Z,4.28
